Time;durP1;ratioP1;P1;durP2;ratioP2;P2;SDS_P1;SDS_P2;PMS_P1;PMS_P2;Temp;Humidity;BMP_temperature;BMP_pressure;BME280_temperature;BME280_humidity;BME280_pressure;Samples;Min_cycle;Max_cycle;Signal;HPM_P1;HPM_P2
2022/12/28 00:01:36;;;;;;;14.50;6.40;;;;;;;;;;6103436;19;20075;-73
2022/12/28 00:03:43;;;;;;;17.05;6.82;;;;;;;;;;6103559;19;20349;-73
2022/12/28 00:05:48;;;;;;;16.05;7.43;;;;;;;;;;6105297;19;20014;-70
2022/12/28 00:07:53;;;;;;;14.68;7.03;;;;;;;;;;6103850;19;20002;-71
2022/12/28 00:09:58;;;;;;;16.23;7.10;;;;;;;;;;6105515;19;20054;-71
2022/12/28 00:12:03;;;;;;;13.63;6.90;;;;;;;;;;6101144;19;20251;-71
2022/12/28 00:14:09;;;;;;;18.58;7.03;;;;;;;;;;6100530;19;20011;-71
2022/12/28 00:16:20;;;;;;;16.27;7.45;;;;;;;;;;6102877;19;20066;-71
2022/12/28 00:18:25;;;;;;;15.88;6.85;;;;;;;;;;6103736;19;20015;-70
2022/12/28 00:20:33;;;;;;;15.05;6.18;;;;;;;;;;6103777;19;20014;-70
2022/12/28 00:22:38;;;;;;;15.00;6.28;;;;;;;;;;6102788;19;20027;-71
2022/12/28 00:24:43;;;;;;;17.10;7.18;;;;;;;;;;6099751;19;20021;-71
2022/12/28 00:26:48;;;;;;;16.00;7.50;;;;;;;;;;6102817;19;20018;-70
2022/12/28 00:28:53;;;;;;;14.57;6.95;;;;;;;;;;6102309;19;20042;-70
2022/12/28 00:31:07;;;;;;;11.77;6.57;;;;;;;;;;6104060;19;20356;-70
2022/12/28 00:33:13;;;;;;;12.00;6.35;;;;;;;;;;6102734;19;20035;-71
2022/12/28 00:35:18;;;;;;;23.92;9.10;;;;;;;;;;6101837;19;20036;-70
2022/12/28 00:37:25;;;;;;;15.63;7.15;;;;;;;;;;6101001;19;20038;-71
2022/12/28 00:39:30;;;;;;;19.63;7.70;;;;;;;;;;6103774;19;20002;-74
2022/12/28 00:41:36;;;;;;;15.52;7.10;;;;;;;;;;6104216;19;20539;-73
2022/12/28 00:43:41;;;;;;;16.25;8.25;;;;;;;;;;6102373;19;20125;-72
2022/12/28 00:45:46;;;;;;;15.68;7.78;;;;;;;;;;6101332;19;20344;-72
2022/12/28 00:47:51;;;;;;;11.05;6.47;;;;;;;;;;6104558;19;20010;-72
2022/12/28 00:49:56;;;;;;;18.77;8.27;;;;;;;;;;6081924;19;20272;-70
2022/12/28 00:52:01;;;;;;;14.88;7.40;;;;;;;;;;6106747;19;20039;-70
2022/12/28 00:54:09;;;;;;;13.52;7.60;;;;;;;;;;6105878;19;20010;-70
2022/12/28 00:56:16;;;;;;;17.90;6.95;;;;;;;;;;6105725;19;20038;-70
2022/12/28 00:58:21;;;;;;;12.98;7.38;;;;;;;;;;6109799;19;20045;-73
2022/12/28 01:00:26;;;;;;;17.13;7.40;;;;;;;;;;6106204;19;20436;-72
2022/12/28 01:02:30;;;;;;;13.05;6.85;;;;;;;;;;6106480;19;20462;-70
2022/12/28 01:04:36;;;;;;;20.63;8.25;;;;;;;;;;6108995;19;20030;-70
2022/12/28 01:06:41;;;;;;;16.33;8.82;;;;;;;;;;6106632;19;20042;-70
2022/12/28 01:08:46;;;;;;;17.45;7.65;;;;;;;;;;6104463;19;20018;-70
2022/12/28 01:10:54;;;;;;;15.50;7.75;;;;;;;;;;6109803;19;20046;-70
2022/12/28 01:12:59;;;;;;;13.70;7.25;;;;;;;;;;6109274;19;20054;-71
2022/12/28 01:15:03;;;;;;;14.48;7.13;;;;;;;;;;6108123;19;20035;-70
2022/12/28 01:17:08;;;;;;;14.90;7.55;;;;;;;;;;6109595;19;20013;-70
2022/12/28 01:19:18;;;;;;;15.45;8.60;;;;;;;;;;6109831;19;20011;-70
2022/12/28 01:21:24;;;;;;;15.55;7.70;;;;;;;;;;6108491;19;20082;-70
2022/12/28 01:23:29;;;;;;;15.13;7.43;;;;;;;;;;6109075;19;20259;-70
2022/12/28 01:25:34;;;;;;;10.90;6.53;;;;;;;;;;6109513;19;20046;-70
2022/12/28 01:27:42;;;;;;;13.82;6.80;;;;;;;;;;6108027;19;20006;-70
2022/12/28 01:29:46;;;;;;;13.43;7.65;;;;;;;;;;6108267;19;20074;-69
2022/12/28 01:31:51;;;;;;;15.15;6.72;;;;;;;;;;6108515;19;20013;-70
2022/12/28 01:33:56;;;;;;;15.57;7.05;;;;;;;;;;6109933;19;20412;-70
2022/12/28 01:36:05;;;;;;;13.23;7.22;;;;;;;;;;6108830;19;20074;-71
2022/12/28 01:38:10;;;;;;;14.32;7.25;;;;;;;;;;6108235;19;20484;-69
2022/12/28 01:40:16;;;;;;;15.30;7.57;;;;;;;;;;6107134;19;20018;-72
2022/12/28 01:42:21;;;;;;;15.57;8.20;;;;;;;;;;6108494;19;20025;-70
2022/12/28 01:44:50;;;;;;;19.45;8.35;;;;;;;;;;6106834;19;20474;-70
2022/12/28 01:46:56;;;;;;;13.50;6.72;;;;;;;;;;6105566;19;20006;-70
2022/12/28 01:49:04;;;;;;;14.15;6.68;;;;;;;;;;6108084;19;20014;-70
2022/12/28 01:51:09;;;;;;;16.50;7.75;;;;;;;;;;6108416;19;20011;-70
2022/12/28 01:53:14;;;;;;;15.82;7.90;;;;;;;;;;6107386;19;20010;-70
2022/12/28 01:55:20;;;;;;;19.70;7.95;;;;;;;;;;6109855;19;20010;-70
2022/12/28 01:57:28;;;;;;;12.80;6.50;;;;;;;;;;6109497;19;20011;-72
2022/12/28 01:59:36;;;;;;;15.70;7.80;;;;;;;;;;6106534;19;20588;-70
2022/12/28 02:01:43;;;;;;;12.20;7.15;;;;;;;;;;6106926;19;20581;-74
2022/12/28 02:03:48;;;;;;;14.90;8.30;;;;;;;;;;6107505;19;20396;-73
2022/12/28 02:05:56;;;;;;;14.90;7.80;;;;;;;;;;6107455;19;20007;-73
2022/12/28 02:08:06;;;;;;;12.68;6.63;;;;;;;;;;6109563;19;20523;-70
2022/12/28 02:10:12;;;;;;;24.73;8.93;;;;;;;;;;6108273;19;20066;-70
2022/12/28 02:12:37;;;;;;;15.68;8.15;;;;;;;;;;6106929;19;20015;-70
2022/12/28 02:14:45;;;;;;;16.75;7.60;;;;;;;;;;6102723;19;20011;-71
2022/12/28 02:16:53;;;;;;;14.98;7.38;;;;;;;;;;6107100;19;20416;-74
2022/12/28 02:18:58;;;;;;;15.25;8.02;;;;;;;;;;6107407;19;20361;-74
2022/12/28 02:21:18;;;;;;;16.95;7.47;;;;;;;;;;6105807;19;20030;-74
2022/12/28 02:23:40;;;;;;;11.65;5.72;;;;;;;;;;6107862;19;20011;-73
2022/12/28 02:26:13;;;;;;;12.95;6.55;;;;;;;;;;6106893;19;20015;-73
2022/12/28 02:28:41;;;;;;;11.50;7.53;;;;;;;;;;6107766;19;20324;-75
2022/12/28 02:30:51;;;;;;;12.55;7.35;;;;;;;;;;6102713;19;20267;-74
2022/12/28 02:33:01;;;;;;;14.90;8.48;;;;;;;;;;6106477;19;20102;-75
2022/12/28 02:35:10;;;;;;;13.60;5.93;;;;;;;;;;6105711;19;20011;-75
2022/12/28 02:37:20;;;;;;;12.43;6.95;;;;;;;;;;6102274;19;20066;-71
2022/12/28 02:39:31;;;;;;;14.88;7.32;;;;;;;;;;6103148;19;20022;-70
2022/12/28 02:41:38;;;;;;;11.50;6.45;;;;;;;;;;6101919;19;20464;-71
2022/12/28 02:43:47;;;;;;;17.00;7.75;;;;;;;;;;6104815;19;20497;-71
2022/12/28 02:50:41;;;;;;;11.40;7.05;;;;;;;;;;6060195;19;20018;-71
2022/12/28 02:53:06;;;;;;;16.00;7.05;;;;;;;;;;6099686;19;20018;-75
2022/12/28 02:57:49;;;;;;;12.05;6.82;;;;;;;;;;6107679;19;20344;-75
2022/12/28 03:00:04;;;;;;;12.75;6.70;;;;;;;;;;6101207;19;20016;-75
2022/12/28 03:02:34;;;;;;;12.70;6.85;;;;;;;;;;6102390;19;20018;-71
2022/12/28 03:04:52;;;;;;;10.98;5.85;;;;;;;;;;6099856;19;20394;-71
2022/12/28 03:09:31;;;;;;;14.68;6.35;;;;;;;;;;6100161;19;20665;-71
2022/12/28 03:11:42;;;;;;;12.38;6.63;;;;;;;;;;6098823;19;20018;-70
2022/12/28 03:13:52;;;;;;;12.23;6.38;;;;;;;;;;6102054;19;20097;-74
2022/12/28 03:15:57;;;;;;;12.13;6.57;;;;;;;;;;6105953;19;20374;-75
2022/12/28 03:32:18;;;;;;;10.43;6.55;;;;;;;;;;6099910;19;20017;-70
2022/12/28 03:34:30;;;;;;;11.57;6.40;;;;;;;;;;6100543;19;20010;-74
2022/12/28 03:36:41;;;;;;;11.80;6.38;;;;;;;;;;6103234;19;20125;-70
2022/12/28 03:38:53;;;;;;;13.48;6.30;;;;;;;;;;6098348;19;20595;-74
2022/12/28 03:41:03;;;;;;;12.43;7.70;;;;;;;;;;6101312;19;20021;-74
2022/12/28 03:45:38;;;;;;;9.80;5.97;;;;;;;;;;6102560;19;20250;-70
2022/12/28 03:47:56;;;;;;;15.68;5.78;;;;;;;;;;6097178;19;20025;-70
2022/12/28 03:50:08;;;;;;;17.15;6.40;;;;;;;;;;6098316;19;20014;-70
2022/12/28 03:52:16;;;;;;;11.02;5.55;;;;;;;;;;6096003;19;20018;-70
2022/12/28 03:54:23;;;;;;;10.38;5.20;;;;;;;;;;6091736;19;20014;-70
2022/12/28 03:56:31;;;;;;;11.18;5.82;;;;;;;;;;6097136;19;20462;-71
2022/12/28 03:58:39;;;;;;;9.70;5.57;;;;;;;;;;6098726;19;20021;-71
2022/12/28 04:00:44;;;;;;;9.18;5.05;;;;;;;;;;6082874;19;20010;-70
2022/12/28 04:02:50;;;;;;;10.73;5.22;;;;;;;;;;6077779;19;20013;-70
2022/12/28 04:04:56;;;;;;;8.02;4.95;;;;;;;;;;6098579;19;20487;-71
2022/12/28 04:07:04;;;;;;;9.98;4.82;;;;;;;;;;6076868;19;20567;-71
2022/12/28 04:09:11;;;;;;;12.75;5.40;;;;;;;;;;6095908;19;20011;-71
2022/12/28 04:11:16;;;;;;;11.90;5.60;;;;;;;;;;6099056;19;20014;-74
2022/12/28 04:13:21;;;;;;;9.88;5.57;;;;;;;;;;6098647;19;20014;-75
2022/12/28 04:15:26;;;;;;;9.07;5.63;;;;;;;;;;6101785;19;20015;-74
2022/12/28 04:17:31;;;;;;;11.82;5.45;;;;;;;;;;6099657;19;20022;-74
2022/12/28 04:19:35;;;;;;;8.95;4.65;;;;;;;;;;6101688;19;20014;-76
2022/12/28 04:21:41;;;;;;;12.73;5.75;;;;;;;;;;6101054;19;20349;-74
2022/12/28 04:23:49;;;;;;;11.32;5.68;;;;;;;;;;6102166;19;20013;-74
2022/12/28 04:26:02;;;;;;;11.35;5.25;;;;;;;;;;6098777;19;20015;-74
2022/12/28 04:28:07;;;;;;;12.07;6.07;;;;;;;;;;6099064;19;20015;-75
2022/12/28 04:30:12;;;;;;;9.95;5.95;;;;;;;;;;6100596;19;20388;-75
2022/12/28 04:32:17;;;;;;;10.75;5.72;;;;;;;;;;6098885;19;20006;-75
2022/12/28 04:34:22;;;;;;;9.95;5.63;;;;;;;;;;6101720;19;20533;-76
2022/12/28 04:36:28;;;;;;;9.82;5.97;;;;;;;;;;6101364;19;20015;-72
2022/12/28 04:38:41;;;;;;;12.00;5.63;;;;;;;;;;6096731;19;20039;-71
2022/12/28 04:40:49;;;;;;;11.60;6.18;;;;;;;;;;6075763;19;20078;-76
2022/12/28 04:42:54;;;;;;;12.65;5.78;;;;;;;;;;6099072;19;20015;-75
2022/12/28 04:44:59;;;;;;;7.80;4.82;;;;;;;;;;6099320;19;20021;-75
2022/12/28 04:47:04;;;;;;;12.10;5.95;;;;;;;;;;6101422;19;20118;-75
2022/12/28 04:49:09;;;;;;;10.38;5.10;;;;;;;;;;6100100;19;20078;-75
2022/12/28 04:51:19;;;;;;;10.90;5.13;;;;;;;;;;6101835;19;20433;-76
2022/12/28 04:53:24;;;;;;;9.80;5.35;;;;;;;;;;6096865;19;20094;-76
2022/12/28 04:55:30;;;;;;;12.68;5.03;;;;;;;;;;6100636;19;20117;-71
2022/12/28 04:57:39;;;;;;;8.20;4.22;;;;;;;;;;6100544;19;20347;-71
2022/12/28 04:59:48;;;;;;;8.00;5.28;;;;;;;;;;6076198;19;20482;-72
2022/12/28 05:02:00;;;;;;;9.52;5.30;;;;;;;;;;6099557;19;20007;-72
2022/12/28 05:04:08;;;;;;;9.15;5.53;;;;;;;;;;6097266;19;20023;-72
2022/12/28 05:06:20;;;;;;;9.13;5.40;;;;;;;;;;6097787;19;20032;-71
2022/12/28 05:08:30;;;;;;;9.68;4.88;;;;;;;;;;6095819;19;20022;-71
2022/12/28 05:10:39;;;;;;;11.00;5.18;;;;;;;;;;6088938;19;20056;-71
2022/12/28 05:12:49;;;;;;;9.68;5.13;;;;;;;;;;6073941;19;20039;-72
2022/12/28 05:14:54;;;;;;;9.75;5.57;;;;;;;;;;6071893;19;20022;-71
2022/12/28 05:16:59;;;;;;;10.93;6.25;;;;;;;;;;6096763;19;20011;-75
2022/12/28 05:19:04;;;;;;;10.55;5.97;;;;;;;;;;6101433;19;20007;-76
2022/12/28 05:21:11;;;;;;;7.80;5.15;;;;;;;;;;6096862;19;20432;-71
2022/12/28 05:23:18;;;;;;;10.65;5.38;;;;;;;;;;6100019;19;20017;-71
2022/12/28 05:25:23;;;;;;;9.85;5.72;;;;;;;;;;6098906;19;20516;-75
2022/12/28 05:27:27;;;;;;;12.55;6.30;;;;;;;;;;6101775;19;20011;-75
2022/12/28 05:29:35;;;;;;;11.38;5.68;;;;;;;;;;6096252;19;20660;-75
2022/12/28 05:31:41;;;;;;;8.18;4.97;;;;;;;;;;6101593;19;20006;-75
2022/12/28 05:33:46;;;;;;;8.45;5.57;;;;;;;;;;6101263;19;20015;-75
2022/12/28 05:35:51;;;;;;;9.73;5.60;;;;;;;;;;6101525;19;20015;-75
2022/12/28 05:37:55;;;;;;;8.75;4.85;;;;;;;;;;6102805;19;20098;-75
2022/12/28 05:40:00;;;;;;;15.32;6.60;;;;;;;;;;6107154;19;20038;-75
2022/12/28 05:42:05;;;;;;;8.40;5.18;;;;;;;;;;6103679;19;20018;-75
2022/12/28 05:44:10;;;;;;;11.52;5.60;;;;;;;;;;6106320;19;20014;-75
2022/12/28 05:46:23;;;;;;;9.10;5.50;;;;;;;;;;6106725;19;20322;-70
2022/12/28 05:48:37;;;;;;;9.85;5.72;;;;;;;;;;6082990;19;20006;-71
2022/12/28 05:50:42;;;;;;;9.15;5.53;;;;;;;;;;6102803;19;20027;-70
2022/12/28 05:52:58;;;;;;;9.48;5.55;;;;;;;;;;6093801;19;20106;-71
2022/12/28 05:55:05;;;;;;;12.43;6.70;;;;;;;;;;6102999;19;20068;-70
2022/12/28 05:57:10;;;;;;;9.00;5.38;;;;;;;;;;6104269;19;21406;-76
2022/12/28 05:59:16;;;;;;;13.75;6.47;;;;;;;;;;6105698;19;20486;-75
2022/12/28 06:01:25;;;;;;;11.43;6.07;;;;;;;;;;6106149;19;20043;-75
2022/12/28 06:03:29;;;;;;;9.88;5.93;;;;;;;;;;6105634;19;20007;-75
2022/12/28 06:05:35;;;;;;;9.75;5.60;;;;;;;;;;6103850;19;20007;-75
2022/12/28 06:07:40;;;;;;;12.60;6.20;;;;;;;;;;6105874;19;20014;-74
2022/12/28 06:09:46;;;;;;;10.77;6.40;;;;;;;;;;6103230;19;20042;-76
2022/12/28 06:11:50;;;;;;;15.25;6.38;;;;;;;;;;6103139;19;20357;-75
2022/12/28 06:13:55;;;;;;;12.55;6.53;;;;;;;;;;6103781;19;20278;-77
2022/12/28 06:16:01;;;;;;;12.18;5.90;;;;;;;;;;6104909;19;20007;-71
2022/12/28 06:18:08;;;;;;;11.07;6.68;;;;;;;;;;6083109;19;20400;-70
2022/12/28 06:20:14;;;;;;;11.25;5.75;;;;;;;;;;6104594;19;20554;-75
2022/12/28 06:22:19;;;;;;;11.60;6.40;;;;;;;;;;6104768;19;20011;-77
2022/12/28 06:24:24;;;;;;;11.95;6.82;;;;;;;;;;6106405;19;21092;-77
2022/12/28 06:26:30;;;;;;;10.30;6.60;;;;;;;;;;6107206;19;20027;-77
2022/12/28 06:28:35;;;;;;;13.10;7.28;;;;;;;;;;6105561;19;20014;-77
2022/12/28 06:30:40;;;;;;;12.68;6.18;;;;;;;;;;6103370;19;20094;-74
2022/12/28 06:32:44;;;;;;;11.30;6.25;;;;;;;;;;6099792;19;20507;-74
2022/12/28 06:34:52;;;;;;;11.20;6.75;;;;;;;;;;6101404;19;20014;-75
2022/12/28 06:36:58;;;;;;;10.10;6.10;;;;;;;;;;6100421;19;20014;-73
2022/12/28 06:39:07;;;;;;;12.43;6.22;;;;;;;;;;6097444;19;20468;-70
2022/12/28 06:41:14;;;;;;;9.68;5.47;;;;;;;;;;6103873;19;20011;-75
2022/12/28 06:43:20;;;;;;;12.45;5.68;;;;;;;;;;6080883;19;20087;-71
2022/12/28 06:45:25;;;;;;;12.85;7.57;;;;;;;;;;6100637;19;20017;-74
2022/12/28 06:47:32;;;;;;;11.30;6.57;;;;;;;;;;6102667;19;20014;-70
2022/12/28 06:49:37;;;;;;;11.75;7.30;;;;;;;;;;6102046;19;20015;-75
2022/12/28 06:51:44;;;;;;;11.93;7.07;;;;;;;;;;6100496;19;20010;-76
2022/12/28 06:53:51;;;;;;;16.10;7.63;;;;;;;;;;6101865;19;20439;-71
2022/12/28 06:55:59;;;;;;;15.98;8.43;;;;;;;;;;6100369;19;20010;-71
2022/12/28 06:58:04;;;;;;;12.32;7.10;;;;;;;;;;6104818;19;20023;-70
2022/12/28 07:00:11;;;;;;;15.93;7.90;;;;;;;;;;6103720;19;20021;-75
2022/12/28 07:02:16;;;;;;;15.20;8.05;;;;;;;;;;6103248;19;20018;-75
2022/12/28 07:04:21;;;;;;;14.10;7.75;;;;;;;;;;6103606;19;20043;-75
2022/12/28 07:06:29;;;;;;;12.55;7.68;;;;;;;;;;6102874;19;20018;-71
2022/12/28 07:08:38;;;;;;;13.18;6.68;;;;;;;;;;6101230;19;20011;-70
2022/12/28 07:10:45;;;;;;;12.30;6.35;;;;;;;;;;6075620;19;20043;-75
2022/12/28 07:12:51;;;;;;;10.88;6.72;;;;;;;;;;6102767;19;20290;-71
2022/12/28 07:14:57;;;;;;;11.85;6.72;;;;;;;;;;6101664;19;20018;-71
2022/12/28 07:17:03;;;;;;;10.90;6.53;;;;;;;;;;6103931;19;25808;-70
2022/12/28 07:19:10;;;;;;;9.48;5.55;;;;;;;;;;6093382;19;20026;-70
2022/12/28 07:21:16;;;;;;;10.52;6.35;;;;;;;;;;6102725;19;20425;-75
2022/12/28 07:23:22;;;;;;;12.90;6.60;;;;;;;;;;6108205;19;20419;-75
2022/12/28 07:25:29;;;;;;;11.93;6.63;;;;;;;;;;6104747;19;20010;-75
2022/12/28 07:27:34;;;;;;;9.85;6.20;;;;;;;;;;6105226;19;20014;-75
2022/12/28 07:29:40;;;;;;;9.55;5.75;;;;;;;;;;6102200;19;20419;-76
2022/12/28 07:31:45;;;;;;;11.90;5.93;;;;;;;;;;6099220;19;20443;-75
2022/12/28 07:33:54;;;;;;;12.55;7.35;;;;;;;;;;6103384;19;20022;-71
2022/12/28 07:35:59;;;;;;;12.90;6.28;;;;;;;;;;6098643;19;20345;-75
2022/12/28 07:38:04;;;;;;;12.15;6.93;;;;;;;;;;6100978;19;20361;-75
2022/12/28 07:40:11;;;;;;;13.20;7.40;;;;;;;;;;6102674;19;20658;-77
2022/12/28 07:42:18;;;;;;;13.65;7.07;;;;;;;;;;6103315;19;20032;-72
2022/12/28 07:44:27;;;;;;;12.07;7.22;;;;;;;;;;6104114;19;20010;-71
2022/12/28 07:46:36;;;;;;;12.98;7.22;;;;;;;;;;6093791;19;20010;-71
2022/12/28 07:48:43;;;;;;;11.73;6.78;;;;;;;;;;6079786;19;20027;-72
2022/12/28 07:50:50;;;;;;;15.27;8.00;;;;;;;;;;6099839;19;20027;-76
2022/12/28 07:52:54;;;;;;;16.48;7.88;;;;;;;;;;6097275;19;20364;-76
2022/12/28 07:54:59;;;;;;;14.23;6.60;;;;;;;;;;6105304;19;20043;-75
2022/12/28 07:57:05;;;;;;;11.40;6.47;;;;;;;;;;6105052;19;20006;-76
2022/12/28 07:59:14;;;;;;;11.85;6.70;;;;;;;;;;6104686;19;20028;-75
2022/12/28 08:01:22;;;;;;;11.82;6.20;;;;;;;;;;6105187;19;20377;-71
2022/12/28 08:03:27;;;;;;;11.35;6.85;;;;;;;;;;6106271;19;20010;-75
2022/12/28 08:05:32;;;;;;;14.40;7.22;;;;;;;;;;6102373;19;21080;-75
2022/12/28 08:07:39;;;;;;;11.60;6.22;;;;;;;;;;6102489;19;20030;-71
2022/12/28 08:09:46;;;;;;;12.20;6.60;;;;;;;;;;6076113;19;20014;-71
2022/12/28 08:11:51;;;;;;;11.25;6.53;;;;;;;;;;6098051;19;21227;-75
2022/12/28 08:13:57;;;;;;;13.00;6.63;;;;;;;;;;6100884;19;20018;-75
2022/12/28 08:16:06;;;;;;;12.25;6.85;;;;;;;;;;6098539;19;20513;-76
2022/12/28 08:18:11;;;;;;;12.18;6.63;;;;;;;;;;6099437;19;20039;-76
2022/12/28 08:20:19;;;;;;;13.48;6.75;;;;;;;;;;6099145;19;20018;-71
2022/12/28 08:22:24;;;;;;;13.05;6.95;;;;;;;;;;6072945;19;20014;-76
2022/12/28 08:24:34;;;;;;;12.07;6.38;;;;;;;;;;6101480;19;20006;-76
2022/12/28 08:26:41;;;;;;;11.68;6.32;;;;;;;;;;6099423;19;20438;-76
2022/12/28 08:28:47;;;;;;;12.35;6.88;;;;;;;;;;6098819;19;20014;-75
2022/12/28 08:30:54;;;;;;;12.88;7.28;;;;;;;;;;6096101;19;20566;-75
2022/12/28 08:33:01;;;;;;;12.52;6.50;;;;;;;;;;6096514;19;20487;-76
2022/12/28 08:35:07;;;;;;;13.60;6.60;;;;;;;;;;6100505;19;20038;-76
2022/12/28 08:37:12;;;;;;;14.57;8.43;;;;;;;;;;6103675;19;20010;-75
2022/12/28 08:39:17;;;;;;;15.18;6.00;;;;;;;;;;6075162;19;20082;-72
2022/12/28 08:41:27;;;;;;;12.02;6.18;;;;;;;;;;6100916;19;20015;-72
2022/12/28 08:43:36;;;;;;;13.52;6.45;;;;;;;;;;6077366;19;20381;-75
2022/12/28 08:45:41;;;;;;;12.93;5.70;;;;;;;;;;6094625;19;20047;-72
2022/12/28 08:47:51;;;;;;;12.27;5.80;;;;;;;;;;6099700;19;20042;-72
2022/12/28 08:49:59;;;;;;;10.50;5.25;;;;;;;;;;6097690;19;20015;-72
2022/12/28 08:52:04;;;;;;;9.40;5.40;;;;;;;;;;6099255;19;20043;-76
2022/12/28 08:54:10;;;;;;;12.27;6.75;;;;;;;;;;6090386;19;20006;-75
2022/12/28 08:56:18;;;;;;;10.23;5.70;;;;;;;;;;6096732;19;20019;-73
2022/12/28 08:58:24;;;;;;;8.95;5.03;;;;;;;;;;6095748;19;20010;-72
2022/12/28 09:00:31;;;;;;;9.77;5.20;;;;;;;;;;6096302;19;20006;-72
2022/12/28 09:02:36;;;;;;;6.70;3.83;;;;;;;;;;6092249;19;20007;-76
2022/12/28 09:04:41;;;;;;;8.88;4.45;;;;;;;;;;6098811;19;20089;-76
2022/12/28 09:06:49;;;;;;;8.75;4.88;;;;;;;;;;6073558;19;20042;-72
2022/12/28 09:09:08;;;;;;;;;;;;;;;;;;;;;
2022/12/28 09:11:16;;;;;;;15.45;5.45;;;;;;;;;;6094774;19;20031;-72
2022/12/28 09:13:21;;;;;;;11.70;4.95;;;;;;;;;;6099149;19;20011;-71
2022/12/28 09:15:28;;;;;;;10.00;4.65;;;;;;;;;;6096789;19;20046;-71
2022/12/28 09:17:34;;;;;;;8.63;4.97;;;;;;;;;;6102768;19;20530;-71
2022/12/28 09:19:41;;;;;;;9.80;4.70;;;;;;;;;;6104132;19;20489;-71
2022/12/28 09:21:58;;;;;;;11.55;5.97;;;;;;;;;;6099558;19;20542;-72
2022/12/28 09:24:03;;;;;;;10.15;5.80;;;;;;;;;;6102901;19;20019;-75
2022/12/28 09:26:09;;;;;;;11.77;5.95;;;;;;;;;;6103702;19;20026;-75
2022/12/28 09:28:14;;;;;;;10.98;5.93;;;;;;;;;;6104637;19;20641;-75
2022/12/28 09:30:19;;;;;;;10.30;5.32;;;;;;;;;;6104756;19;20034;-75
2022/12/28 09:32:26;;;;;;;11.90;5.35;;;;;;;;;;6106734;19;20555;-75
2022/12/28 09:34:31;;;;;;;11.18;4.28;;;;;;;;;;6105554;19;20014;-75
2022/12/28 09:36:41;;;;;;;10.80;4.68;;;;;;;;;;6106632;19;20042;-75
2022/12/28 09:38:49;;;;;;;10.25;4.50;;;;;;;;;;6103630;19;20014;-74
2022/12/28 09:40:55;;;;;;;11.90;5.13;;;;;;;;;;6106525;19;20007;-75
2022/12/28 09:43:00;;;;;;;12.27;4.68;;;;;;;;;;6108672;19;20089;-75
2022/12/28 09:45:06;;;;;;;8.63;3.97;;;;;;;;;;6107206;19;20087;-75
2022/12/28 09:47:22;;;;;;;8.00;4.32;;;;;;;;;;6109033;19;20335;-75
2022/12/28 09:49:32;;;;;;;7.45;3.72;;;;;;;;;;6104949;19;20002;-72
2022/12/28 09:51:40;;;;;;;7.57;4.03;;;;;;;;;;6106034;19;20010;-75
2022/12/28 09:53:45;;;;;;;8.05;3.53;;;;;;;;;;6104226;19;20389;-75
2022/12/28 09:56:01;;;;;;;8.85;4.13;;;;;;;;;;6110117;19;20382;-72
2022/12/28 09:58:11;;;;;;;11.52;4.95;;;;;;;;;;6104240;19;20006;-72
2022/12/28 10:00:22;;;;;;;8.55;3.83;;;;;;;;;;6104095;19;20427;-72
2022/12/28 10:02:32;;;;;;;8.02;3.58;;;;;;;;;;6106777;19;20661;-72
2022/12/28 10:04:38;;;;;;;10.43;4.20;;;;;;;;;;6105180;19;20487;-72
2022/12/28 10:06:50;;;;;;;11.55;3.92;;;;;;;;;;6060597;19;20014;-73
2022/12/28 10:08:58;;;;;;;9.27;3.80;;;;;;;;;;6105341;19;20113;-72
2022/12/28 10:11:06;;;;;;;9.40;4.55;;;;;;;;;;6106620;19;20045;-72
2022/12/28 10:13:17;;;;;;;8.25;4.05;;;;;;;;;;6107266;19;20002;-71
2022/12/28 10:15:42;;;;;;;12.38;4.68;;;;;;;;;;6106197;19;20066;-70
2022/12/28 10:17:47;;;;;;;9.27;3.75;;;;;;;;;;6106097;19;20015;-72
2022/12/28 10:19:52;;;;;;;11.27;4.68;;;;;;;;;;6108288;19;20018;-71
2022/12/28 10:22:01;;;;;;;11.88;4.75;;;;;;;;;;6081600;19;20515;-71
2022/12/28 10:24:09;;;;;;;14.05;4.47;;;;;;;;;;6103318;19;20074;-72
2022/12/28 10:26:37;;;;;;;10.88;4.28;;;;;;;;;;6106850;19;20018;-72
2022/12/28 10:28:46;;;;;;;7.88;4.50;;;;;;;;;;6103922;19;20525;-72
2022/12/28 10:31:06;;;;;;;12.10;5.05;;;;;;;;;;6078100;19;20407;-71
2022/12/28 10:33:13;;;;;;;9.23;4.05;;;;;;;;;;6102390;19;20010;-75
2022/12/28 10:35:25;;;;;;;12.00;4.38;;;;;;;;;;6102381;19;20125;-71
2022/12/28 10:37:32;;;;;;;7.88;4.43;;;;;;;;;;6104395;19;20011;-71
2022/12/28 10:39:37;;;;;;;6.72;3.80;;;;;;;;;;6104971;19;20034;-71
2022/12/28 10:41:46;;;;;;;8.10;3.97;;;;;;;;;;6108277;19;20017;-72
2022/12/28 10:43:53;;;;;;;7.13;3.63;;;;;;;;;;6105745;19;20010;-74
2022/12/28 10:46:20;;;;;;;8.93;3.80;;;;;;;;;;6101579;19;20031;-76
2022/12/28 10:48:28;;;;;;;11.30;4.32;;;;;;;;;;6104957;19;20015;-71
2022/12/28 10:50:46;;;;;;;9.15;4.55;;;;;;;;;;6107019;19;20158;-71
2022/12/28 10:52:58;;;;;;;10.43;4.30;;;;;;;;;;6098609;19;20439;-70
2022/12/28 10:55:03;;;;;;;7.35;4.05;;;;;;;;;;6103460;19;20098;-70
2022/12/28 10:57:20;;;;;;;8.82;4.03;;;;;;;;;;6104739;19;20050;-70
2022/12/28 10:59:27;;;;;;;9.13;3.38;;;;;;;;;;6104084;19;20014;-70
2022/12/28 11:01:32;;;;;;;11.68;3.95;;;;;;;;;;6106275;19;20024;-70
2022/12/28 11:03:39;;;;;;;9.23;4.03;;;;;;;;;;6105737;19;20074;-74
2022/12/28 11:05:44;;;;;;;8.93;3.53;;;;;;;;;;6104731;19;20015;-73
2022/12/28 11:07:49;;;;;;;10.02;4.30;;;;;;;;;;6105772;19;20070;-74
2022/12/28 11:09:55;;;;;;;9.80;4.05;;;;;;;;;;6104125;19;20031;-74
2022/12/28 11:12:24;;;;;;;7.78;3.42;;;;;;;;;;6103655;19;20023;-70
2022/12/28 11:14:33;;;;;;;8.55;3.88;;;;;;;;;;6105718;19;20003;-69
2022/12/28 11:16:39;;;;;;;10.13;3.63;;;;;;;;;;6077090;19;20014;-75
2022/12/28 11:18:44;;;;;;;10.50;3.97;;;;;;;;;;6096598;19;20032;-71
2022/12/28 11:20:51;;;;;;;8.55;4.03;;;;;;;;;;6102521;19;20032;-76
2022/12/28 11:22:58;;;;;;;9.00;3.58;;;;;;;;;;6101251;19;20139;-75
2022/12/28 11:25:03;;;;;;;8.13;3.80;;;;;;;;;;6103109;19;20026;-70
2022/12/28 11:27:12;;;;;;;11.90;4.13;;;;;;;;;;6104945;19;20007;-71
2022/12/28 11:29:20;;;;;;;7.53;3.10;;;;;;;;;;6106464;19;20446;-71
2022/12/28 11:31:34;;;;;;;5.72;3.22;;;;;;;;;;6106260;19;20010;-74
2022/12/28 11:33:43;;;;;;;7.03;3.55;;;;;;;;;;6106777;19;21411;-75
2022/12/28 11:35:48;;;;;;;10.15;3.75;;;;;;;;;;6101508;19;20410;-75
2022/12/28 11:37:55;;;;;;;6.43;3.60;;;;;;;;;;6100509;19;20018;-72
2022/12/28 11:40:01;;;;;;;9.82;4.22;;;;;;;;;;6106175;19;20513;-71
2022/12/28 11:42:06;;;;;;;10.63;4.43;;;;;;;;;;6103514;19;20006;-74
2022/12/28 11:44:55;;;;;;;7.95;3.25;;;;;;;;;;6106655;19;20283;-70
2022/12/28 11:47:09;;;;;;;6.25;3.17;;;;;;;;;;6102524;19;20506;-70
2022/12/28 11:49:32;;;;;;;5.40;3.30;;;;;;;;;;6103199;19;20014;-70
2022/12/28 11:51:38;;;;;;;7.70;3.53;;;;;;;;;;6105430;19;20030;-74
2022/12/28 11:53:58;;;;;;;9.07;3.92;;;;;;;;;;6103510;19;20496;-74
2022/12/28 11:56:08;;;;;;;8.52;4.45;;;;;;;;;;6105998;19;20006;-75
2022/12/28 11:58:55;;;;;;;10.88;4.00;;;;;;;;;;6104792;19;20006;-70
2022/12/28 12:01:03;;;;;;;7.68;3.58;;;;;;;;;;6100783;19;20011;-71
2022/12/28 12:03:08;;;;;;;9.23;3.22;;;;;;;;;;6101718;19;20010;-73
2022/12/28 12:05:43;;;;;;;6.93;3.22;;;;;;;;;;6103896;19;20606;-74
2022/12/28 12:07:50;;;;;;;7.95;3.67;;;;;;;;;;6104368;19;20010;-74
2022/12/28 12:10:33;;;;;;;7.65;3.00;;;;;;;;;;6104981;19;20021;-70
2022/12/28 12:12:50;;;;;;;8.07;3.50;;;;;;;;;;6082789;19;20038;-71
2022/12/28 12:14:57;;;;;;;9.02;3.83;;;;;;;;;;6101182;19;20011;-72
2022/12/28 12:17:07;;;;;;;7.45;3.25;;;;;;;;;;6103198;19;20946;-73
2022/12/28 12:19:22;;;;;;;9.15;3.88;;;;;;;;;;6102383;19;20554;-71
2022/12/28 12:21:34;;;;;;;9.38;3.80;;;;;;;;;;6102981;19;20417;-71
2022/12/28 12:23:43;;;;;;;8.67;4.30;;;;;;;;;;6104650;19;20086;-69
2022/12/28 12:25:53;;;;;;;11.13;4.57;;;;;;;;;;6102858;19;20018;-71
2022/12/28 12:28:00;;;;;;;12.00;5.47;;;;;;;;;;6105773;19;20010;-71
2022/12/28 12:30:07;;;;;;;8.30;4.63;;;;;;;;;;6103987;19;20027;-71
2022/12/28 12:32:18;;;;;;;12.73;4.78;;;;;;;;;;6104943;19;20423;-72
2022/12/28 12:34:28;;;;;;;8.88;4.10;;;;;;;;;;6103327;19;20196;-71
2022/12/28 12:36:49;;;;;;;9.60;4.43;;;;;;;;;;6103873;19;20358;-71
2022/12/28 12:39:14;;;;;;;7.63;4.00;;;;;;;;;;6078235;19;20323;-70
2022/12/28 12:41:26;;;;;;;9.68;4.60;;;;;;;;;;6102672;19;20014;-70
2022/12/28 12:43:34;;;;;;;12.63;5.40;;;;;;;;;;6104698;19;20571;-71
2022/12/28 12:45:44;;;;;;;13.00;4.40;;;;;;;;;;6104250;19;20467;-71
2022/12/28 12:48:15;;;;;;;9.57;4.10;;;;;;;;;;6109311;19;20086;-70
2022/12/28 12:50:34;;;;;;;14.20;4.60;;;;;;;;;;6111841;19;20003;-71
2022/12/28 12:52:43;;;;;;;12.15;5.50;;;;;;;;;;6108053;19;20380;-70
2022/12/28 12:55:02;;;;;;;14.05;4.30;;;;;;;;;;6107473;19;20070;-70
2022/12/28 12:57:13;;;;;;;7.65;3.28;;;;;;;;;;6111271;19;20011;-70
2022/12/28 12:59:31;;;;;;;8.93;3.90;;;;;;;;;;6110855;19;20011;-70
2022/12/28 13:01:42;;;;;;;14.95;4.50;;;;;;;;;;6109852;19;20017;-71
2022/12/28 13:03:50;;;;;;;8.70;3.97;;;;;;;;;;6109030;19;20034;-70
2022/12/28 13:05:56;;;;;;;8.60;3.30;;;;;;;;;;6110642;19;20023;-70
2022/12/28 13:08:02;;;;;;;10.70;4.68;;;;;;;;;;6110419;19;20494;-70
2022/12/28 13:10:11;;;;;;;10.50;4.05;;;;;;;;;;6109562;19;20574;-70
2022/12/28 13:12:18;;;;;;;10.52;4.63;;;;;;;;;;6112231;19;20505;-70